sensor_id;sensor_type;location;lat;lon;timestamp;P1;durP1;ratioP1;P2;durP2;ratioP2
44480;SDS011;30184;42.018;23.670;2023-12-29T00:01:56;36.80;;;17.52;;
44480;SDS011;30184;42.018;23.670;2023-12-29T00:04:26;42.45;;;18.52;;
44480;SDS011;30184;42.018;23.670;2023-12-29T00:06:57;29.92;;;13.43;;
44480;SDS011;30184;42.018;23.670;2023-12-29T00:09:28;45.90;;;17.25;;
44480;SDS011;30184;42.018;23.670;2023-12-29T00:12:05;36.08;;;11.40;;
44480;SDS011;30184;42.018;23.670;2023-12-29T00:14:36;19.10;;;7.95;;
44480;SDS011;30184;42.018;23.670;2023-12-29T00:17:08;13.93;;;8.35;;
44480;SDS011;30184;42.018;23.670;2023-12-29T00:19:37;12.98;;;8.23;;
44480;SDS011;30184;42.018;23.670;2023-12-29T00:22:08;26.13;;;11.75;;
44480;SDS011;30184;42.018;23.670;2023-12-29T00:24:37;39.20;;;14.60;;
44480;SDS011;30184;42.018;23.670;2023-12-29T00:27:07;18.65;;;9.77;;
44480;SDS011;30184;42.018;23.670;2023-12-29T00:29:36;21.63;;;10.80;;
44480;SDS011;30184;42.018;23.670;2023-12-29T00:32:07;35.08;;;14.18;;
44480;SDS011;30184;42.018;23.670;2023-12-29T00:34:36;29.25;;;13.23;;
44480;SDS011;30184;42.018;23.670;2023-12-29T00:37:07;20.85;;;10.82;;
44480;SDS011;30184;42.018;23.670;2023-12-29T00:39:37;25.40;;;11.65;;
44480;SDS011;30184;42.018;23.670;2023-12-29T00:42:07;20.75;;;8.63;;
44480;SDS011;30184;42.018;23.670;2023-12-29T00:44:39;16.70;;;7.80;;
44480;SDS011;30184;42.018;23.670;2023-12-29T00:47:08;18.10;;;7.93;;
44480;SDS011;30184;42.018;23.670;2023-12-29T00:49:38;17.00;;;7.72;;
44480;SDS011;30184;42.018;23.670;2023-12-29T00:52:11;18.00;;;7.68;;
44480;SDS011;30184;42.018;23.670;2023-12-29T00:54:40;15.05;;;5.53;;
44480;SDS011;30184;42.018;23.670;2023-12-29T00:57:10;12.98;;;6.10;;
44480;SDS011;30184;42.018;23.670;2023-12-29T00:59:40;11.23;;;6.70;;
44480;SDS011;30184;42.018;23.670;2023-12-29T01:02:11;20.83;;;10.02;;
44480;SDS011;30184;42.018;23.670;2023-12-29T01:04:40;16.60;;;7.55;;
44480;SDS011;30184;42.018;23.670;2023-12-29T01:07:11;20.55;;;9.50;;
44480;SDS011;30184;42.018;23.670;2023-12-29T01:09:40;27.45;;;11.18;;
44480;SDS011;30184;42.018;23.670;2023-12-29T01:12:10;34.38;;;13.02;;
44480;SDS011;30184;42.018;23.670;2023-12-29T01:14:39;31.17;;;11.57;;
44480;SDS011;30184;42.018;23.670;2023-12-29T01:17:09;35.28;;;10.52;;
44480;SDS011;30184;42.018;23.670;2023-12-29T01:19:38;25.30;;;9.00;;
44480;SDS011;30184;42.018;23.670;2023-12-29T01:22:07;20.73;;;6.63;;
44480;SDS011;30184;42.018;23.670;2023-12-29T01:24:38;12.93;;;6.75;;
44480;SDS011;30184;42.018;23.670;2023-12-29T01:27:08;15.50;;;6.95;;
44480;SDS011;30184;42.018;23.670;2023-12-29T01:29:38;25.55;;;8.20;;
44480;SDS011;30184;42.018;23.670;2023-12-29T01:32:10;7.57;;;4.50;;
44480;SDS011;30184;42.018;23.670;2023-12-29T01:34:39;12.80;;;8.20;;
44480;SDS011;30184;42.018;23.670;2023-12-29T01:37:09;16.38;;;6.38;;
44480;SDS011;30184;42.018;23.670;2023-12-29T01:39:40;35.47;;;8.25;;
44480;SDS011;30184;42.018;23.670;2023-12-29T01:42:10;13.73;;;6.68;;
44480;SDS011;30184;42.018;23.670;2023-12-29T01:44:40;29.15;;;12.60;;
44480;SDS011;30184;42.018;23.670;2023-12-29T01:47:10;43.63;;;12.40;;
44480;SDS011;30184;42.018;23.670;2023-12-29T01:49:43;19.85;;;11.30;;
44480;SDS011;30184;42.018;23.670;2023-12-29T01:52:14;28.08;;;8.85;;
44480;SDS011;30184;42.018;23.670;2023-12-29T01:54:47;17.48;;;6.93;;
44480;SDS011;30184;42.018;23.670;2023-12-29T01:57:21;24.10;;;8.93;;
44480;SDS011;30184;42.018;23.670;2023-12-29T01:59:51;33.28;;;11.00;;
44480;SDS011;30184;42.018;23.670;2023-12-29T02:02:20;73.05;;;20.20;;
44480;SDS011;30184;42.018;23.670;2023-12-29T02:04:50;46.67;;;18.88;;
44480;SDS011;30184;42.018;23.670;2023-12-29T02:07:19;27.48;;;9.23;;
44480;SDS011;30184;42.018;23.670;2023-12-29T02:09:53;13.95;;;7.40;;
44480;SDS011;30184;42.018;23.670;2023-12-29T02:12:23;19.85;;;9.07;;
44480;SDS011;30184;42.018;23.670;2023-12-29T02:14:52;53.15;;;14.55;;
44480;SDS011;30184;42.018;23.670;2023-12-29T02:17:22;17.42;;;9.40;;
44480;SDS011;30184;42.018;23.670;2023-12-29T02:19:55;11.90;;;6.47;;
44480;SDS011;30184;42.018;23.670;2023-12-29T02:22:25;12.63;;;6.63;;
44480;SDS011;30184;42.018;23.670;2023-12-29T02:24:56;12.38;;;4.82;;
44480;SDS011;30184;42.018;23.670;2023-12-29T02:27:27;10.10;;;6.07;;
44480;SDS011;30184;42.018;23.670;2023-12-29T02:30:06;10.02;;;5.68;;
44480;SDS011;30184;42.018;23.670;2023-12-29T02:32:38;6.82;;;4.55;;
44480;SDS011;30184;42.018;23.670;2023-12-29T02:35:11;7.55;;;4.18;;
44480;SDS011;30184;42.018;23.670;2023-12-29T02:37:42;10.82;;;5.10;;
44480;SDS011;30184;42.018;23.670;2023-12-29T02:40:14;15.57;;;5.45;;
44480;SDS011;30184;42.018;23.670;2023-12-29T02:42:44;23.38;;;8.88;;
44480;SDS011;30184;42.018;23.670;2023-12-29T02:45:14;12.05;;;7.22;;
44480;SDS011;30184;42.018;23.670;2023-12-29T02:47:44;12.15;;;7.68;;
44480;SDS011;30184;42.018;23.670;2023-12-29T02:50:14;10.85;;;6.32;;
44480;SDS011;30184;42.018;23.670;2023-12-29T02:52:45;9.98;;;6.10;;
44480;SDS011;30184;42.018;23.670;2023-12-29T02:55:16;11.57;;;5.55;;
44480;SDS011;30184;42.018;23.670;2023-12-29T02:57:45;16.65;;;5.82;;
44480;SDS011;30184;42.018;23.670;2023-12-29T03:00:14;9.23;;;4.30;;
44480;SDS011;30184;42.018;23.670;2023-12-29T03:02:45;24.17;;;7.32;;
44480;SDS011;30184;42.018;23.670;2023-12-29T03:05:14;13.85;;;7.38;;
44480;SDS011;30184;42.018;23.670;2023-12-29T03:07:51;18.65;;;4.53;;
44480;SDS011;30184;42.018;23.670;2023-12-29T03:10:22;7.57;;;4.00;;
44480;SDS011;30184;42.018;23.670;2023-12-29T03:12:52;3.75;;;2.80;;
44480;SDS011;30184;42.018;23.670;2023-12-29T03:15:21;6.47;;;4.57;;
44480;SDS011;30184;42.018;23.670;2023-12-29T03:17:50;6.60;;;4.25;;
44480;SDS011;30184;42.018;23.670;2023-12-29T03:20:19;10.32;;;5.15;;
44480;SDS011;30184;42.018;23.670;2023-12-29T03:22:48;5.78;;;3.50;;
44480;SDS011;30184;42.018;23.670;2023-12-29T03:25:18;6.30;;;4.68;;
44480;SDS011;30184;42.018;23.670;2023-12-29T03:27:51;8.98;;;4.30;;
44480;SDS011;30184;42.018;23.670;2023-12-29T03:30:21;6.85;;;3.75;;
44480;SDS011;30184;42.018;23.670;2023-12-29T03:32:51;4.55;;;3.22;;
44480;SDS011;30184;42.018;23.670;2023-12-29T03:35:20;10.13;;;4.43;;
44480;SDS011;30184;42.018;23.670;2023-12-29T03:37:49;4.22;;;3.03;;
44480;SDS011;30184;42.018;23.670;2023-12-29T03:40:18;7.25;;;4.15;;
44480;SDS011;30184;42.018;23.670;2023-12-29T03:42:47;12.32;;;5.20;;
44480;SDS011;30184;42.018;23.670;2023-12-29T03:45:18;9.35;;;4.38;;
44480;SDS011;30184;42.018;23.670;2023-12-29T03:47:48;12.05;;;5.60;;
44480;SDS011;30184;42.018;23.670;2023-12-29T03:50:17;8.05;;;4.25;;
44480;SDS011;30184;42.018;23.670;2023-12-29T03:52:50;17.67;;;6.10;;
44480;SDS011;30184;42.018;23.670;2023-12-29T03:55:19;12.80;;;5.88;;
44480;SDS011;30184;42.018;23.670;2023-12-29T03:57:48;12.05;;;5.20;;
44480;SDS011;30184;42.018;23.670;2023-12-29T04:00:19;10.45;;;6.90;;
44480;SDS011;30184;42.018;23.670;2023-12-29T04:02:51;7.07;;;5.13;;
44480;SDS011;30184;42.018;23.670;2023-12-29T04:05:20;16.50;;;4.80;;
44480;SDS011;30184;42.018;23.670;2023-12-29T04:07:49;6.75;;;4.75;;
44480;SDS011;30184;42.018;23.670;2023-12-29T04:10:18;15.10;;;6.00;;
44480;SDS011;30184;42.018;23.670;2023-12-29T04:12:48;21.73;;;5.25;;
44480;SDS011;30184;42.018;23.670;2023-12-29T04:15:19;16.60;;;5.50;;
44480;SDS011;30184;42.018;23.670;2023-12-29T04:17:49;21.83;;;9.65;;
44480;SDS011;30184;42.018;23.670;2023-12-29T04:20:18;51.63;;;20.08;;
44480;SDS011;30184;42.018;23.670;2023-12-29T04:22:47;49.10;;;19.42;;
44480;SDS011;30184;42.018;23.670;2023-12-29T04:25:16;20.23;;;10.63;;
44480;SDS011;30184;42.018;23.670;2023-12-29T04:27:47;19.15;;;8.25;;
44480;SDS011;30184;42.018;23.670;2023-12-29T04:30:17;19.88;;;11.00;;
44480;SDS011;30184;42.018;23.670;2023-12-29T04:32:48;18.50;;;11.18;;
44480;SDS011;30184;42.018;23.670;2023-12-29T04:35:18;26.45;;;10.13;;
44480;SDS011;30184;42.018;23.670;2023-12-29T04:37:47;25.88;;;11.27;;
44480;SDS011;30184;42.018;23.670;2023-12-29T04:40:17;11.02;;;6.70;;
44480;SDS011;30184;42.018;23.670;2023-12-29T04:42:47;10.52;;;5.35;;
44480;SDS011;30184;42.018;23.670;2023-12-29T04:45:16;10.93;;;6.20;;
44480;SDS011;30184;42.018;23.670;2023-12-29T04:47:47;11.05;;;5.75;;
44480;SDS011;30184;42.018;23.670;2023-12-29T04:50:18;27.77;;;11.82;;
44480;SDS011;30184;42.018;23.670;2023-12-29T04:52:47;10.52;;;5.72;;
44480;SDS011;30184;42.018;23.670;2023-12-29T04:55:16;14.73;;;6.80;;
44480;SDS011;30184;42.018;23.670;2023-12-29T04:57:46;14.18;;;7.68;;
44480;SDS011;30184;42.018;23.670;2023-12-29T05:00:15;13.02;;;6.45;;
44480;SDS011;30184;42.018;23.670;2023-12-29T05:02:45;12.57;;;7.50;;
44480;SDS011;30184;42.018;23.670;2023-12-29T05:05:15;8.65;;;5.82;;
44480;SDS011;30184;42.018;23.670;2023-12-29T05:07:45;19.75;;;8.65;;
44480;SDS011;30184;42.018;23.670;2023-12-29T05:10:14;22.85;;;10.13;;
44480;SDS011;30184;42.018;23.670;2023-12-29T05:12:44;20.95;;;10.25;;
44480;SDS011;30184;42.018;23.670;2023-12-29T05:15:13;16.92;;;8.77;;
44480;SDS011;30184;42.018;23.670;2023-12-29T05:17:42;16.35;;;9.38;;
44480;SDS011;30184;42.018;23.670;2023-12-29T05:20:12;11.32;;;8.10;;
44480;SDS011;30184;42.018;23.670;2023-12-29T05:22:43;21.77;;;9.73;;
44480;SDS011;30184;42.018;23.670;2023-12-29T05:25:12;19.02;;;7.72;;
44480;SDS011;30184;42.018;23.670;2023-12-29T05:27:41;30.35;;;13.45;;
44480;SDS011;30184;42.018;23.670;2023-12-29T05:30:11;29.73;;;12.50;;
44480;SDS011;30184;42.018;23.670;2023-12-29T05:32:40;32.78;;;17.13;;
44480;SDS011;30184;42.018;23.670;2023-12-29T05:35:09;59.53;;;25.42;;
44480;SDS011;30184;42.018;23.670;2023-12-29T05:37:39;53.53;;;23.08;;
44480;SDS011;30184;42.018;23.670;2023-12-29T05:40:10;37.65;;;17.33;;
44480;SDS011;30184;42.018;23.670;2023-12-29T05:42:40;32.45;;;13.00;;
44480;SDS011;30184;42.018;23.670;2023-12-29T05:45:10;14.63;;;9.98;;
44480;SDS011;30184;42.018;23.670;2023-12-29T05:47:39;32.13;;;11.25;;
44480;SDS011;30184;42.018;23.670;2023-12-29T05:50:08;21.73;;;11.57;;
44480;SDS011;30184;42.018;23.670;2023-12-29T05:52:41;23.83;;;11.93;;
44480;SDS011;30184;42.018;23.670;2023-12-29T05:55:11;28.80;;;13.10;;
44480;SDS011;30184;42.018;23.670;2023-12-29T05:57:41;34.47;;;14.27;;
44480;SDS011;30184;42.018;23.670;2023-12-29T06:00:10;41.05;;;20.80;;
44480;SDS011;30184;42.018;23.670;2023-12-29T06:02:41;38.85;;;16.95;;
44480;SDS011;30184;42.018;23.670;2023-12-29T06:05:11;32.28;;;18.08;;
44480;SDS011;30184;42.018;23.670;2023-12-29T06:07:41;60.58;;;26.98;;
44480;SDS011;30184;42.018;23.670;2023-12-29T06:10:11;69.93;;;27.45;;
44480;SDS011;30184;42.018;23.670;2023-12-29T06:12:41;41.90;;;19.83;;
44480;SDS011;30184;42.018;23.670;2023-12-29T06:15:12;26.00;;;16.80;;
44480;SDS011;30184;42.018;23.670;2023-12-29T06:17:42;34.50;;;23.00;;
44480;SDS011;30184;42.018;23.670;2023-12-29T06:20:12;71.55;;;31.77;;
44480;SDS011;30184;42.018;23.670;2023-12-29T06:22:41;109.00;;;45.28;;
44480;SDS011;30184;42.018;23.670;2023-12-29T06:25:12;78.82;;;34.83;;
44480;SDS011;30184;42.018;23.670;2023-12-29T06:27:42;77.55;;;37.78;;
44480;SDS011;30184;42.018;23.670;2023-12-29T06:30:12;44.40;;;24.27;;
44480;SDS011;30184;42.018;23.670;2023-12-29T06:32:42;51.95;;;25.95;;
44480;SDS011;30184;42.018;23.670;2023-12-29T06:35:11;61.53;;;33.15;;
44480;SDS011;30184;42.018;23.670;2023-12-29T06:37:41;53.30;;;23.42;;
44480;SDS011;30184;42.018;23.670;2023-12-29T06:40:10;53.38;;;25.08;;
44480;SDS011;30184;42.018;23.670;2023-12-29T06:42:41;52.38;;;23.50;;
44480;SDS011;30184;42.018;23.670;2023-12-29T06:45:11;47.85;;;24.48;;
44480;SDS011;30184;42.018;23.670;2023-12-29T06:47:41;51.65;;;23.58;;
44480;SDS011;30184;42.018;23.670;2023-12-29T06:50:12;71.70;;;27.23;;
44480;SDS011;30184;42.018;23.670;2023-12-29T06:52:42;54.20;;;24.15;;
44480;SDS011;30184;42.018;23.670;2023-12-29T06:55:13;56.75;;;24.63;;
44480;SDS011;30184;42.018;23.670;2023-12-29T06:57:43;52.45;;;24.88;;
44480;SDS011;30184;42.018;23.670;2023-12-29T07:00:13;58.33;;;28.40;;
44480;SDS011;30184;42.018;23.670;2023-12-29T07:02:43;110.85;;;44.42;;
44480;SDS011;30184;42.018;23.670;2023-12-29T07:05:12;115.00;;;50.75;;
44480;SDS011;30184;42.018;23.670;2023-12-29T07:07:49;96.47;;;41.45;;
44480;SDS011;30184;42.018;23.670;2023-12-29T07:10:21;66.38;;;30.33;;
44480;SDS011;30184;42.018;23.670;2023-12-29T07:12:50;60.20;;;26.63;;
44480;SDS011;30184;42.018;23.670;2023-12-29T07:15:20;61.35;;;29.98;;
44480;SDS011;30184;42.018;23.670;2023-12-29T07:17:50;65.90;;;28.92;;
44480;SDS011;30184;42.018;23.670;2023-12-29T07:20:19;52.97;;;24.23;;
44480;SDS011;30184;42.018;23.670;2023-12-29T07:22:49;55.10;;;26.10;;
44480;SDS011;30184;42.018;23.670;2023-12-29T07:25:18;63.72;;;28.70;;
44480;SDS011;30184;42.018;23.670;2023-12-29T07:27:55;68.78;;;29.67;;
44480;SDS011;30184;42.018;23.670;2023-12-29T07:30:27;53.53;;;28.02;;
44480;SDS011;30184;42.018;23.670;2023-12-29T07:32:57;51.88;;;27.30;;
44480;SDS011;30184;42.018;23.670;2023-12-29T07:35:29;45.92;;;24.50;;
44480;SDS011;30184;42.018;23.670;2023-12-29T07:37:59;44.75;;;25.15;;
44480;SDS011;30184;42.018;23.670;2023-12-29T07:40:31;55.40;;;27.48;;
44480;SDS011;30184;42.018;23.670;2023-12-29T07:43:00;57.67;;;25.88;;
44480;SDS011;30184;42.018;23.670;2023-12-29T07:45:30;62.90;;;28.58;;
44480;SDS011;30184;42.018;23.670;2023-12-29T07:48:01;61.35;;;28.73;;
44480;SDS011;30184;42.018;23.670;2023-12-29T07:50:32;48.70;;;27.10;;
44480;SDS011;30184;42.018;23.670;2023-12-29T07:53:09;58.00;;;24.27;;
44480;SDS011;30184;42.018;23.670;2023-12-29T07:55:41;41.60;;;24.45;;
44480;SDS011;30184;42.018;23.670;2023-12-29T07:58:14;54.00;;;27.55;;
44480;SDS011;30184;42.018;23.670;2023-12-29T08:00:46;46.72;;;26.58;;
44480;SDS011;30184;42.018;23.670;2023-12-29T08:03:16;54.17;;;23.38;;
44480;SDS011;30184;42.018;23.670;2023-12-29T08:05:46;38.85;;;19.55;;
44480;SDS011;30184;42.018;23.670;2023-12-29T08:08:16;80.80;;;37.50;;
44480;SDS011;30184;42.018;23.670;2023-12-29T08:10:47;129.98;;;51.85;;
44480;SDS011;30184;42.018;23.670;2023-12-29T08:13:17;89.88;;;40.13;;
44480;SDS011;30184;42.018;23.670;2023-12-29T08:15:47;78.43;;;33.20;;
44480;SDS011;30184;42.018;23.670;2023-12-29T08:18:19;81.55;;;38.72;;
44480;SDS011;30184;42.018;23.670;2023-12-29T08:20:50;97.35;;;38.85;;
44480;SDS011;30184;42.018;23.670;2023-12-29T08:23:20;78.57;;;35.65;;
44480;SDS011;30184;42.018;23.670;2023-12-29T08:25:51;82.47;;;37.78;;
44480;SDS011;30184;42.018;23.670;2023-12-29T08:28:22;99.10;;;45.67;;
44480;SDS011;30184;42.018;23.670;2023-12-29T08:30:51;130.25;;;48.13;;
44480;SDS011;30184;42.018;23.670;2023-12-29T08:33:21;67.82;;;33.78;;
44480;SDS011;30184;42.018;23.670;2023-12-29T08:35:51;72.00;;;33.83;;
44480;SDS011;30184;42.018;23.670;2023-12-29T08:38:21;70.78;;;31.48;;
44480;SDS011;30184;42.018;23.670;2023-12-29T08:40:52;51.90;;;30.08;;
44480;SDS011;30184;42.018;23.670;2023-12-29T08:43:22;45.72;;;25.30;;
44480;SDS011;30184;42.018;23.670;2023-12-29T08:45:51;49.50;;;24.67;;
44480;SDS011;30184;42.018;23.670;2023-12-29T08:48:21;65.00;;;29.02;;
44480;SDS011;30184;42.018;23.670;2023-12-29T08:50:53;49.85;;;26.85;;
44480;SDS011;30184;42.018;23.670;2023-12-29T08:53:23;77.05;;;33.05;;
44480;SDS011;30184;42.018;23.670;2023-12-29T08:55:54;33.60;;;18.75;;
44480;SDS011;30184;42.018;23.670;2023-12-29T08:58:23;76.07;;;28.42;;
44480;SDS011;30184;42.018;23.670;2023-12-29T09:00:52;115.13;;;45.78;;
44480;SDS011;30184;42.018;23.670;2023-12-29T09:03:22;174.93;;;61.72;;
44480;SDS011;30184;42.018;23.670;2023-12-29T09:05:51;140.05;;;55.03;;
44480;SDS011;30184;42.018;23.670;2023-12-29T09:08:21;86.93;;;38.08;;
44480;SDS011;30184;42.018;23.670;2023-12-29T09:10:54;75.35;;;29.92;;
44480;SDS011;30184;42.018;23.670;2023-12-29T09:13:25;104.03;;;37.53;;
44480;SDS011;30184;42.018;23.670;2023-12-29T09:15:54;117.57;;;44.63;;
44480;SDS011;30184;42.018;23.670;2023-12-29T09:18:24;86.07;;;30.42;;
44480;SDS011;30184;42.018;23.670;2023-12-29T09:20:54;66.45;;;26.08;;
44480;SDS011;30184;42.018;23.670;2023-12-29T09:23:23;58.55;;;26.48;;
44480;SDS011;30184;42.018;23.670;2023-12-29T09:25:55;52.40;;;25.65;;
44480;SDS011;30184;42.018;23.670;2023-12-29T09:28:25;88.78;;;33.40;;
44480;SDS011;30184;42.018;23.670;2023-12-29T09:30:54;76.97;;;34.25;;
44480;SDS011;30184;42.018;23.670;2023-12-29T09:33:23;67.93;;;31.35;;
44480;SDS011;30184;42.018;23.670;2023-12-29T09:35:53;81.28;;;32.08;;
44480;SDS011;30184;42.018;23.670;2023-12-29T09:38:22;121.05;;;42.95;;
44480;SDS011;30184;42.018;23.670;2023-12-29T09:40:51;161.25;;;48.75;;
44480;SDS011;30184;42.018;23.670;2023-12-29T09:43:23;158.35;;;50.00;;
44480;SDS011;30184;42.018;23.670;2023-12-29T09:45:53;145.07;;;46.47;;
44480;SDS011;30184;42.018;23.670;2023-12-29T09:48:25;84.13;;;29.60;;
44480;SDS011;30184;42.018;23.670;2023-12-29T09:50:55;75.50;;;27.00;;
44480;SDS011;30184;42.018;23.670;2023-12-29T09:53:27;76.65;;;32.83;;
44480;SDS011;30184;42.018;23.670;2023-12-29T09:55:57;81.18;;;32.13;;
44480;SDS011;30184;42.018;23.670;2023-12-29T09:58:31;114.80;;;35.50;;
44480;SDS011;30184;42.018;23.670;2023-12-29T10:01:04;113.17;;;36.73;;
44480;SDS011;30184;42.018;23.670;2023-12-29T10:03:33;76.65;;;27.48;;
44480;SDS011;30184;42.018;23.670;2023-12-29T10:06:03;54.22;;;22.27;;
44480;SDS011;30184;42.018;23.670;2023-12-29T10:08:36;48.60;;;20.75;;
44480;SDS011;30184;42.018;23.670;2023-12-29T10:11:06;50.42;;;21.77;;
44480;SDS011;30184;42.018;23.670;2023-12-29T10:13:38;54.80;;;23.52;;
44480;SDS011;30184;42.018;23.670;2023-12-29T10:16:13;44.75;;;19.10;;
44480;SDS011;30184;42.018;23.670;2023-12-29T10:21:26;58.25;;;23.02;;
44480;SDS011;30184;42.018;23.670;2023-12-29T10:24:10;66.93;;;28.63;;
44480;SDS011;30184;42.018;23.670;2023-12-29T10:26:45;63.42;;;25.13;;
44480;SDS011;30184;42.018;23.670;2023-12-29T10:29:16;159.93;;;63.85;;
44480;SDS011;30184;42.018;23.670;2023-12-29T10:31:48;52.78;;;22.75;;
44480;SDS011;30184;42.018;23.670;2023-12-29T10:34:17;40.47;;;21.08;;
44480;SDS011;30184;42.018;23.670;2023-12-29T10:36:47;44.63;;;18.35;;
44480;SDS011;30184;42.018;23.670;2023-12-29T10:39:19;39.25;;;20.75;;
44480;SDS011;30184;42.018;23.670;2023-12-29T10:41:49;50.78;;;18.65;;
44480;SDS011;30184;42.018;23.670;2023-12-29T10:44:20;43.90;;;19.25;;
44480;SDS011;30184;42.018;23.670;2023-12-29T10:46:51;45.33;;;19.75;;
44480;SDS011;30184;42.018;23.670;2023-12-29T10:49:20;58.40;;;20.75;;
44480;SDS011;30184;42.018;23.670;2023-12-29T10:51:49;39.75;;;17.60;;
44480;SDS011;30184;42.018;23.670;2023-12-29T10:54:20;40.45;;;17.25;;
44480;SDS011;30184;42.018;23.670;2023-12-29T10:57:00;48.58;;;24.10;;
44480;SDS011;30184;42.018;23.670;2023-12-29T10:59:31;53.08;;;22.42;;
44480;SDS011;30184;42.018;23.670;2023-12-29T11:02:02;52.92;;;20.70;;
44480;SDS011;30184;42.018;23.670;2023-12-29T11:04:33;40.25;;;18.45;;
44480;SDS011;30184;42.018;23.670;2023-12-29T11:07:03;26.13;;;12.23;;
44480;SDS011;30184;42.018;23.670;2023-12-29T11:09:32;29.33;;;15.40;;
44480;SDS011;30184;42.018;23.670;2023-12-29T11:12:03;44.25;;;19.75;;
44480;SDS011;30184;42.018;23.670;2023-12-29T11:14:35;48.65;;;20.73;;
44480;SDS011;30184;42.018;23.670;2023-12-29T11:17:07;58.78;;;24.42;;
44480;SDS011;30184;42.018;23.670;2023-12-29T11:19:38;66.05;;;32.55;;
44480;SDS011;30184;42.018;23.670;2023-12-29T11:22:09;82.35;;;33.05;;
44480;SDS011;30184;42.018;23.670;2023-12-29T12:44:24;67.22;;;28.33;;
44480;SDS011;30184;42.018;23.670;2023-12-29T12:46:56;39.28;;;19.30;;
44480;SDS011;30184;42.018;23.670;2023-12-29T12:49:29;36.78;;;17.17;;
44480;SDS011;30184;42.018;23.670;2023-12-29T12:51:59;39.55;;;18.52;;
44480;SDS011;30184;42.018;23.670;2023-12-29T12:54:28;40.15;;;14.80;;
44480;SDS011;30184;42.018;23.670;2023-12-29T12:56:58;51.17;;;18.98;;
44480;SDS011;30184;42.018;23.670;2023-12-29T12:59:35;45.42;;;17.85;;
44480;SDS011;30184;42.018;23.670;2023-12-29T13:02:04;60.58;;;21.88;;
44480;SDS011;30184;42.018;23.670;2023-12-29T13:04:38;34.20;;;17.88;;
44480;SDS011;30184;42.018;23.670;2023-12-29T13:07:08;46.50;;;18.48;;
44480;SDS011;30184;42.018;23.670;2023-12-29T13:09:38;43.67;;;20.08;;
44480;SDS011;30184;42.018;23.670;2023-12-29T13:12:09;32.88;;;16.13;;
44480;SDS011;30184;42.018;23.670;2023-12-29T13:14:40;31.40;;;13.18;;
44480;SDS011;30184;42.018;23.670;2023-12-29T13:17:10;29.77;;;15.50;;
44480;SDS011;30184;42.018;23.670;2023-12-29T13:19:42;38.38;;;15.15;;
44480;SDS011;30184;42.018;23.670;2023-12-29T13:22:12;32.42;;;12.45;;
44480;SDS011;30184;42.018;23.670;2023-12-29T13:24:43;22.65;;;12.45;;
44480;SDS011;30184;42.018;23.670;2023-12-29T13:27:14;22.17;;;11.55;;
44480;SDS011;30184;42.018;23.670;2023-12-29T13:29:46;39.65;;;18.90;;
44480;SDS011;30184;42.018;23.670;2023-12-29T13:32:17;50.22;;;20.75;;
44480;SDS011;30184;42.018;23.670;2023-12-29T13:34:52;30.75;;;13.38;;
44480;SDS011;30184;42.018;23.670;2023-12-29T13:37:25;41.17;;;16.50;;
44480;SDS011;30184;42.018;23.670;2023-12-29T13:40:03;46.10;;;18.08;;
44480;SDS011;30184;42.018;23.670;2023-12-29T13:42:41;43.05;;;16.30;;
44480;SDS011;30184;42.018;23.670;2023-12-29T13:45:15;38.60;;;16.35;;
44480;SDS011;30184;42.018;23.670;2023-12-29T13:47:47;35.55;;;17.77;;
44480;SDS011;30184;42.018;23.670;2023-12-29T13:50:17;39.53;;;19.77;;
44480;SDS011;30184;42.018;23.670;2023-12-29T13:52:46;44.90;;;18.58;;
44480;SDS011;30184;42.018;23.670;2023-12-29T13:55:28;87.05;;;29.17;;
44480;SDS011;30184;42.018;23.670;2023-12-29T13:57:57;37.60;;;16.23;;
44480;SDS011;30184;42.018;23.670;2023-12-29T14:00:29;46.17;;;16.05;;
44480;SDS011;30184;42.018;23.670;2023-12-29T14:03:05;50.85;;;20.00;;
44480;SDS011;30184;42.018;23.670;2023-12-29T14:05:39;48.20;;;21.35;;
44480;SDS011;30184;42.018;23.670;2023-12-29T14:08:17;40.33;;;16.92;;
44480;SDS011;30184;42.018;23.670;2023-12-29T14:10:47;45.83;;;17.48;;
44480;SDS011;30184;42.018;23.670;2023-12-29T14:13:17;67.82;;;19.25;;
44480;SDS011;30184;42.018;23.670;2023-12-29T14:15:48;30.80;;;11.80;;
44480;SDS011;30184;42.018;23.670;2023-12-29T14:21:26;80.97;;;29.13;;
44480;SDS011;30184;42.018;23.670;2023-12-29T14:26:53;50.53;;;21.65;;
44480;SDS011;30184;42.018;23.670;2023-12-29T14:29:26;44.78;;;15.77;;
44480;SDS011;30184;42.018;23.670;2023-12-29T14:31:57;41.72;;;17.40;;
44480;SDS011;30184;42.018;23.670;2023-12-29T14:34:27;60.97;;;21.90;;
44480;SDS011;30184;42.018;23.670;2023-12-29T14:37:02;46.30;;;20.05;;
44480;SDS011;30184;42.018;23.670;2023-12-29T14:39:31;51.45;;;21.17;;
44480;SDS011;30184;42.018;23.670;2023-12-29T14:42:01;51.60;;;25.73;;
44480;SDS011;30184;42.018;23.670;2023-12-29T14:44:30;64.03;;;26.85;;
44480;SDS011;30184;42.018;23.670;2023-12-29T14:47:04;72.60;;;28.10;;
44480;SDS011;30184;42.018;23.670;2023-12-29T14:49:35;66.65;;;29.58;;
44480;SDS011;30184;42.018;23.670;2023-12-29T14:52:04;67.50;;;29.90;;
44480;SDS011;30184;42.018;23.670;2023-12-29T14:54:34;88.63;;;39.22;;
44480;SDS011;30184;42.018;23.670;2023-12-29T14:57:03;77.55;;;37.85;;
44480;SDS011;30184;42.018;23.670;2023-12-29T14:59:34;97.65;;;41.45;;
44480;SDS011;30184;42.018;23.670;2023-12-29T15:02:06;84.25;;;38.00;;
44480;SDS011;30184;42.018;23.670;2023-12-29T15:04:36;76.05;;;31.45;;
44480;SDS011;30184;42.018;23.670;2023-12-29T15:07:06;62.42;;;31.25;;
44480;SDS011;30184;42.018;23.670;2023-12-29T15:09:35;67.00;;;32.42;;
44480;SDS011;30184;42.018;23.670;2023-12-29T15:12:04;104.50;;;43.83;;
44480;SDS011;30184;42.018;23.670;2023-12-29T15:14:34;91.82;;;37.47;;
44480;SDS011;30184;42.018;23.670;2023-12-29T15:17:03;94.28;;;42.25;;
44480;SDS011;30184;42.018;23.670;2023-12-29T15:19:35;128.00;;;53.15;;
44480;SDS011;30184;42.018;23.670;2023-12-29T15:22:04;155.35;;;64.25;;
44480;SDS011;30184;42.018;23.670;2023-12-29T15:24:34;177.40;;;72.03;;
44480;SDS011;30184;42.018;23.670;2023-12-29T15:27:03;108.53;;;43.10;;
44480;SDS011;30184;42.018;23.670;2023-12-29T15:29:33;108.03;;;44.38;;
44480;SDS011;30184;42.018;23.670;2023-12-29T15:32:02;120.13;;;45.60;;
44480;SDS011;30184;42.018;23.670;2023-12-29T15:34:34;89.05;;;40.90;;
44480;SDS011;30184;42.018;23.670;2023-12-29T15:37:03;100.35;;;42.92;;
44480;SDS011;30184;42.018;23.670;2023-12-29T15:39:33;112.53;;;47.45;;
44480;SDS011;30184;42.018;23.670;2023-12-29T15:42:04;92.78;;;43.30;;
44480;SDS011;30184;42.018;23.670;2023-12-29T15:44:34;94.57;;;45.67;;
44480;SDS011;30184;42.018;23.670;2023-12-29T15:47:03;102.28;;;48.50;;
44480;SDS011;30184;42.018;23.670;2023-12-29T15:49:34;129.88;;;52.78;;
44480;SDS011;30184;42.018;23.670;2023-12-29T15:52:06;90.70;;;39.80;;
44480;SDS011;30184;42.018;23.670;2023-12-29T15:54:35;56.60;;;28.00;;
44480;SDS011;30184;42.018;23.670;2023-12-29T15:57:06;66.03;;;26.73;;
44480;SDS011;30184;42.018;23.670;2023-12-29T15:59:38;74.97;;;31.38;;